Strona główna
METAR-TAF:

METAR-TAF

Lotnisko :

Warkala, Algieria

Szerokość geograficzna: 31-55N, Długość geograficzna: 005-24E, wysokość: 141 m

Aktualna obserwacja pogody

Raport powstał 42 minut temu, godzina 15:00 UTC
Wiatr 14 kt od północno-północny wschód
Temperatura 23°C
Wilgotność 20%
Ciśnienie 1012 hPa
Widzialność: 7000 m

METAR: DAUU 191500Z 02014KT 7000 NSC 23/M01 Q1012

czas: 16:42 (15:42 UTC)

Prognoza

Raport powstał 1 godzina i 42 minut temu, godzina 14:00 UTC
Prognoza ważna od 19 godzina 15 UTC do 19 godzina 24 UTC
Wiatr 14 kt od północny wschód
Widzialność: 8000 m
Prawdopodobieństwo 30%
od 19 godzina 20 UTC do 19 godzina 24 UTC
Widzialność: 4000 m
zmętnienie

TAF: DAUU 191400Z 1915/1924 04014KT 8000 NSC PROB30 1920/1924 4000 HZ

Obserwacja i prognoza pogody dla ponad 4000 lotnisk (raport METAR i TAF).

Dostępne stacje oznaczono żółtymi i czerwonymi punktami na mapie.

Najedź kursorem aby zobaczyć nazwę stacji.

Kliknij aby zobaczyć obserwacje i prognozy pogody.

Aby zmienić mapę: kliknij na zielony przycisk z czarnym krzyżykiem, aby powiększyć; na zielony przycisk z myślnikiem, aby pomniejszyć; na zielone strzałki, aby przejść do map sąsiednich.


METAR-TAF: